Time;durP1;ratioP1;P1;durP2;ratioP2;P2;SDS_P1;SDS_P2;PMS_P1;PMS_P2;Temp;Humidity;BMP_temperature;BMP_pressure;BME280_temperature;BME280_humidity;BME280_pressure;Samples;Min_cycle;Max_cycle;Signal;HPM_P1;HPM_P2
2023/08/16 00:01:22;;;;;;;;;;;;;;;17.09;100.00;101862.13;5006026;28;20394;-76
2023/08/16 00:03:47;;;;;;;;;;;;;;;17.14;100.00;101871.72;4967898;28;20036;-76
2023/08/16 00:06:13;;;;;;;;;;;;;;;17.17;100.00;101868.72;4988304;28;19927;-76
2023/08/16 00:08:39;;;;;;;;;;;;;;;17.15;100.00;101871.59;4988095;28;20004;-76
2023/08/16 00:11:04;;;;;;;;;;;;;;;17.14;100.00;101866.28;5004377;28;19983;-75
2023/08/16 00:13:29;;;;;;;;;;;;;;;17.16;100.00;101869.72;4983797;28;19944;-75
2023/08/16 00:15:55;;;;;;;;;;;;;;;17.18;100.00;101860.47;5004176;28;20359;-75
2023/08/16 00:18:20;;;;;;;;;;;;;;;17.12;100.00;101863.72;4990304;28;19964;-76
2023/08/16 00:20:45;;;;;;;;;;;;;;;17.13;100.00;101862.75;4993315;28;20040;-75
2023/08/16 00:23:10;;;;;;;;;;;;;;;17.09;100.00;101864.00;4989366;28;19928;-75
2023/08/16 00:25:36;;;;;;;;;;;;;;;17.11;100.00;101861.13;5007435;28;19922;-76
2023/08/16 00:28:01;;;;;;;;;;;;;;;17.10;100.00;101868.44;4993051;28;19925;-75
2023/08/16 00:30:26;;;;;;;;;;;;;;;17.10;100.00;101871.16;4991411;28;19943;-76
2023/08/16 00:32:51;;;;;;;;;;;;;;;17.07;100.00;101877.72;5010855;28;20357;-76
2023/08/16 00:35:17;;;;;;;;;;;;;;;17.05;100.00;101882.41;4993452;28;20229;-75
2023/08/16 00:37:42;;;;;;;;;;;;;;;17.03;100.00;101888.97;4992317;28;19952;-75
2023/08/16 00:40:08;;;;;;;;;;;;;;;17.02;100.00;101889.94;4992113;28;20291;-76
2023/08/16 00:42:33;;;;;;;;;;;;;;;16.97;100.00;101884.94;5009857;28;20360;-75
2023/08/16 00:44:58;;;;;;;;;;;;;;;17.03;100.00;101884.41;5006339;28;19922;-76
2023/08/16 00:47:24;;;;;;;;;;;;;;;17.03;100.00;101889.84;4992429;28;19929;-76
2023/08/16 00:49:49;;;;;;;;;;;;;;;17.06;100.00;101896.84;4990836;28;19931;-76
2023/08/16 00:52:14;;;;;;;;;;;;;;;17.06;100.00;101885.97;4996955;28;20106;-76
2023/08/16 00:54:39;;;;;;;;;;;;;;;17.08;100.00;101887.53;4991330;28;19926;-76
2023/08/16 00:57:05;;;;;;;;;;;;;;;17.11;100.00;101896.41;4990339;28;19949;-76
2023/08/16 00:59:30;;;;;;;;;;;;;;;17.12;100.00;101890.00;5008350;28;19922;-76
2023/08/16 01:01:55;;;;;;;;;;;;;;;17.05;100.00;101881.53;5009684;28;20365;-76
2023/08/16 01:04:20;;;;;;;;;;;;;;;17.01;100.00;101889.09;5005559;28;19917;-76
2023/08/16 01:06:45;;;;;;;;;;;;;;;16.92;100.00;101884.47;4974865;28;20403;-76
2023/08/16 01:09:11;;;;;;;;;;;;;;;16.99;100.00;101891.09;4993540;28;20458;-76
2023/08/16 01:11:57;;;;;;;;;;;;;;;17.02;100.00;101900.81;5008066;28;20392;-76
2023/08/16 01:14:45;;;;;;;;;;;;;;;17.00;100.00;101898.25;4981751;28;19922;-76
2023/08/16 01:17:12;;;;;;;;;;;;;;;16.88;100.00;101911.00;4978371;28;21049;-76
2023/08/16 01:19:37;;;;;;;;;;;;;;;16.70;100.00;101913.47;5003107;28;20351;-76
2023/08/16 01:22:17;;;;;;;;;;;;;;;16.76;100.00;101907.53;5007774;28;19933;-76
2023/08/16 01:25:01;;;;;;;;;;;;;;;16.74;100.00;101911.34;5001911;28;19928;-76
2023/08/16 01:27:26;;;;;;;;;;;;;;;16.85;100.00;101916.69;4994852;28;19921;-76
2023/08/16 01:29:52;;;;;;;;;;;;;;;16.90;100.00;101913.56;5005313;28;19925;-76
2023/08/16 01:32:17;;;;;;;;;;;;;;;16.96;100.00;101920.34;4984235;28;19921;-76
2023/08/16 01:34:43;;;;;;;;;;;;;;;16.98;100.00;101921.94;4988184;28;19952;-75
2023/08/16 01:37:08;;;;;;;;;;;;;;;16.98;100.00;101929.19;4989935;28;19921;-76
2023/08/16 01:39:33;;;;;;;;;;;;;;;17.01;100.00;101912.66;5005317;28;20627;-76
2023/08/16 01:41:58;;;;;;;;;;;;;;;17.04;100.00;101928.66;4988099;28;19955;-76
2023/08/16 01:44:24;;;;;;;;;;;;;;;17.09;100.00;101926.41;5004173;28;19949;-75
2023/08/16 01:46:49;;;;;;;;;;;;;;;17.05;100.00;101919.53;4970254;28;20067;-76
2023/08/16 01:49:14;;;;;;;;;;;;;;;17.03;100.00;101932.38;4999201;28;19925;-75
2023/08/16 01:51:39;;;;;;;;;;;;;;;17.01;100.00;101924.38;4977828;28;19928;-75
2023/08/16 01:54:05;;;;;;;;;;;;;;;17.04;100.00;101929.53;5001561;28;19932;-75
2023/08/16 01:56:30;;;;;;;;;;;;;;;17.08;100.00;101930.13;5002188;28;20304;-75
2023/08/16 01:58:55;;;;;;;;;;;;;;;17.11;100.00;101908.13;4986888;28;19925;-76
2023/08/16 02:01:21;;;;;;;;;;;;;;;17.08;100.00;101922.81;5005748;28;19929;-76
2023/08/16 02:03:46;;;;;;;;;;;;;;;17.09;100.00;101926.41;5002113;28;19958;-76
2023/08/16 02:06:11;;;;;;;;;;;;;;;17.04;100.00;101917.81;4990903;28;20279;-76
2023/08/16 02:08:36;;;;;;;;;;;;;;;17.01;100.00;101926.22;4992542;28;19964;-76
2023/08/16 02:11:02;;;;;;;;;;;;;;;17.02;100.00;101933.34;4986066;28;20029;-76
2023/08/16 02:13:27;;;;;;;;;;;;;;;17.03;100.00;101930.53;4983413;28;19926;-76
2023/08/16 02:15:59;;;;;;;;;;;;;;;17.02;100.00;101938.78;4990919;28;20012;-76
2023/08/16 02:18:24;;;;;;;;;;;;;;;16.97;100.00;101933.78;4991764;28;19921;-75
2023/08/16 02:20:51;;;;;;;;;;;;;;;16.96;100.00;101933.88;4967407;28;19996;-76
2023/08/16 02:23:16;;;;;;;;;;;;;;;16.97;100.00;101932.91;5006741;28;19921;-75
2023/08/16 02:25:43;;;;;;;;;;;;;;;16.96;100.00;101933.88;5003847;28;20254;-76
2023/08/16 02:28:08;;;;;;;;;;;;;;;16.92;100.00;101936.88;4986882;28;19922;-76
2023/08/16 02:30:33;;;;;;;;;;;;;;;16.91;100.00;101932.44;4989794;28;20419;-76
2023/08/16 02:32:58;;;;;;;;;;;;;;;16.88;100.00;101937.25;5006223;28;20679;-76
2023/08/16 02:35:24;;;;;;;;;;;;;;;16.93;100.00;101941.31;4990086;28;20364;-76
2023/08/16 02:37:49;;;;;;;;;;;;;;;16.95;100.00;101938.44;4989266;28;20364;-76
2023/08/16 02:40:14;;;;;;;;;;;;;;;16.98;100.00;101940.03;4988838;28;20504;-75
2023/08/16 02:42:39;;;;;;;;;;;;;;;17.03;100.00;101937.78;4988655;28;19994;-76
2023/08/16 02:45:05;;;;;;;;;;;;;;;17.06;100.00;101926.69;4986756;28;19932;-76
2023/08/16 02:47:30;;;;;;;;;;;;;;;17.09;100.00;101931.84;4987624;28;20011;-76
2023/08/16 02:49:56;;;;;;;;;;;;;;;17.07;100.00;101926.56;5005361;28;20020;-76
2023/08/16 02:52:21;;;;;;;;;;;;;;;17.04;100.00;101926.81;4992546;28;19939;-76
2023/08/16 02:54:46;;;;;;;;;;;;;;;17.06;100.00;101924.84;4987270;28;20024;-76
2023/08/16 02:57:13;;;;;;;;;;;;;;;17.02;100.00;101934.22;4990121;28;19921;-76
2023/08/16 02:59:41;;;;;;;;;;;;;;;17.01;100.00;101932.53;4989674;28;19926;-76
2023/08/16 03:02:07;;;;;;;;;;;;;;;16.93;100.00;101930.44;5002616;28;19926;-76
2023/08/16 03:04:32;;;;;;;;;;;;;;;16.94;100.00;101934.88;5005893;28;19932;-76
2023/08/16 03:06:57;;;;;;;;;;;;;;;16.98;100.00;101942.75;4989012;28;20363;-76
2023/08/16 03:09:23;;;;;;;;;;;;;;;16.99;100.00;101931.78;5008111;28;20323;-76
2023/08/16 03:11:49;;;;;;;;;;;;;;;17.03;100.00;101926.94;4988107;28;20819;-76
2023/08/16 03:14:14;;;;;;;;;;;;;;;17.06;100.00;101932.09;4971097;28;19952;-76
2023/08/16 03:16:39;;;;;;;;;;;;;;;17.05;100.00;101923.13;4989215;28;20368;-76
2023/08/16 03:19:05;;;;;;;;;;;;;;;17.06;100.00;101921.25;5002159;28;19926;-76
2023/08/16 03:21:30;;;;;;;;;;;;;;;17.07;100.00;101909.41;5006242;28;19926;-76
2023/08/16 03:23:55;;;;;;;;;;;;;;;17.06;100.00;101911.28;5005183;28;19931;-75
2023/08/16 03:26:20;;;;;;;;;;;;;;;17.03;100.00;101922.38;4993160;28;19918;-77
2023/08/16 03:28:46;;;;;;;;;;;;;;;16.99;100.00;101923.66;4988274;28;19945;-76
2023/08/16 03:31:11;;;;;;;;;;;;;;;16.97;100.00;101924.75;4991254;28;19921;-75
2023/08/16 03:33:36;;;;;;;;;;;;;;;16.94;100.00;101932.19;5004340;28;19928;-75
2023/08/16 03:36:02;;;;;;;;;;;;;;;16.99;100.00;101939.06;4984362;28;20435;-76
2023/08/16 03:38:27;;;;;;;;;;;;;;;17.03;100.00;101937.78;5000269;28;19921;-76
2023/08/16 03:40:53;;;;;;;;;;;;;;;17.09;100.00;101942.69;4989996;28;19935;-76
2023/08/16 03:43:18;;;;;;;;;;;;;;;17.11;100.00;101946.13;4989953;28;19922;-76
2023/08/16 03:45:43;;;;;;;;;;;;;;;17.08;100.00;101939.09;4985997;28;19969;-76
2023/08/16 03:48:09;;;;;;;;;;;;;;;17.15;100.00;101939.44;4985032;28;19925;-75
2023/08/16 03:50:34;;;;;;;;;;;;;;;17.12;100.00;101946.97;4998369;28;19949;-76
2023/08/16 03:52:59;;;;;;;;;;;;;;;17.07;100.00;101947.38;4971891;28;20031;-75
2023/08/16 03:55:25;;;;;;;;;;;;;;;17.06;100.00;101951.97;5008750;28;19964;-75
2023/08/16 03:57:50;;;;;;;;;;;;;;;17.02;100.00;101949.63;4990576;28;20009;-75
2023/08/16 04:00:16;;;;;;;;;;;;;;;17.04;100.00;101955.78;5007275;28;19925;-76
2023/08/16 04:02:41;;;;;;;;;;;;;;;17.03;100.00;101948.66;4990433;28;19921;-75
2023/08/16 04:05:11;;;;;;;;;;;;;;;17.08;100.00;101949.09;4972700;28;19964;-76
2023/08/16 04:07:36;;;;;;;;;;;;;;;17.10;100.00;101957.97;4987571;28;19918;-76
2023/08/16 04:10:01;;;;;;;;;;;;;;;17.07;100.00;101950.09;4985090;28;19999;-76
2023/08/16 04:12:27;;;;;;;;;;;;;;;17.12;100.00;101965.97;5003674;28;20035;-76
2023/08/16 04:14:52;;;;;;;;;;;;;;;17.08;100.00;101954.53;5009994;28;20403;-76
2023/08/16 04:17:17;;;;;;;;;;;;;;;17.01;100.00;101956.94;5002500;28;19952;-77
2023/08/16 04:19:42;;;;;;;;;;;;;;;16.92;100.00;101953.16;5002530;28;20269;-76
2023/08/16 04:22:08;;;;;;;;;;;;;;;16.94;100.00;101964.72;4984932;28;19965;-76
2023/08/16 04:24:33;;;;;;;;;;;;;;;16.97;100.00;101969.03;5004363;28;20047;-76
2023/08/16 04:26:58;;;;;;;;;;;;;;;17.00;100.00;101966.06;5007546;28;19940;-76
2023/08/16 04:29:24;;;;;;;;;;;;;;;16.87;100.00;101958.09;4973350;28;19937;-76
2023/08/16 04:31:49;;;;;;;;;;;;;;;16.70;100.00;101928.88;5007763;28;19928;-76
2023/08/16 04:34:15;;;;;;;;;;;;;;;16.87;100.00;101952.69;4992833;28;20631;-76
2023/08/16 04:36:40;;;;;;;;;;;;;;;16.86;100.00;101956.38;5009752;28;20340;-75
2023/08/16 04:39:05;;;;;;;;;;;;;;;16.90;100.00;101955.13;4975215;28;20487;-76
2023/08/16 04:41:30;;;;;;;;;;;;;;;16.86;100.00;101955.50;4992687;28;20817;-76
2023/08/16 04:43:55;;;;;;;;;;;;;;;16.83;100.00;101964.78;4976422;28;20364;-76
2023/08/16 04:46:21;;;;;;;;;;;;;;;16.83;100.00;101962.06;4991757;28;20455;-76
2023/08/16 04:48:46;;;;;;;;;;;;;;;16.86;100.00;101964.53;4977091;28;20021;-76
2023/08/16 04:51:11;;;;;;;;;;;;;;;16.86;100.00;101972.66;4990742;28;20378;-76
2023/08/16 04:53:37;;;;;;;;;;;;;;;16.80;100.00;101978.59;4978069;28;20470;-76
2023/08/16 04:56:02;;;;;;;;;;;;;;;16.84;100.00;101988.19;4990120;28;19952;-76
2023/08/16 04:58:27;;;;;;;;;;;;;;;16.85;100.00;101991.75;4975883;28;20040;-76
2023/08/16 05:00:52;;;;;;;;;;;;;;;16.90;100.00;101989.50;5006617;28;20258;-76
2023/08/16 05:03:18;;;;;;;;;;;;;;;16.93;100.00;101992.84;4974407;28;19964;-76
2023/08/16 05:05:43;;;;;;;;;;;;;;;16.94;100.00;101994.56;5004889;28;20177;-76
2023/08/16 05:08:08;;;;;;;;;;;;;;;16.96;100.00;101993.56;4989516;28;19921;-76
2023/08/16 05:10:33;;;;;;;;;;;;;;;17.03;100.00;102002.91;5007249;28;19953;-76
2023/08/16 05:12:58;;;;;;;;;;;;;;;17.08;100.00;101997.94;5002485;28;20040;-76
2023/08/16 05:15:24;;;;;;;;;;;;;;;17.08;100.00;102000.66;4995614;28;19961;-76
2023/08/16 05:17:49;;;;;;;;;;;;;;;17.08;100.00;102001.50;5007393;28;19925;-76
2023/08/16 05:20:14;;;;;;;;;;;;;;;17.03;100.00;101997.47;5010178;28;19956;-76
2023/08/16 05:22:39;;;;;;;;;;;;;;;16.99;100.00;101994.19;4977028;28;20276;-76
2023/08/16 05:25:05;;;;;;;;;;;;;;;16.99;100.00;102004.16;4989247;28;20325;-76
2023/08/16 05:27:31;;;;;;;;;;;;;;;16.94;100.00;102005.41;5008458;28;19921;-76
2023/08/16 05:29:56;;;;;;;;;;;;;;;16.96;100.00;102002.59;5007602;28;19925;-77
2023/08/16 05:32:22;;;;;;;;;;;;;;;16.98;100.00;101997.00;5008688;28;19921;-77
2023/08/16 05:34:47;;;;;;;;;;;;;;;17.03;100.00;101997.47;4979976;28;20363;-76
2023/08/16 05:37:12;;;;;;;;;;;;;;;17.02;100.00;101996.63;5012454;28;20648;-76
2023/08/16 05:39:38;;;;;;;;;;;;;;;17.06;100.00;101997.22;4987440;28;20013;-76
2023/08/16 05:42:03;;;;;;;;;;;;;;;17.13;100.00;101997.53;4984616;28;21220;-79
2023/08/16 05:44:28;;;;;;;;;;;;;;;17.22;100.00;101997.56;5006398;28;20410;-78
2023/08/16 05:46:54;;;;;;;;;;;;;;;17.29;100.00;101997.03;4976624;28;19969;-77
2023/08/16 05:49:19;;;;;;;;;;;;;;;17.36;100.00;102006.38;4990362;28;20024;-80
2023/08/16 05:51:44;;;;;;;;;;;;;;;17.36;100.00;102015.34;4992675;28;19921;-79
2023/08/16 05:54:10;;;;;;;;;;;;;;;17.51;100.00;102013.13;4978446;28;20332;-78
2023/08/16 05:56:35;;;;;;;;;;;;;;;17.64;100.00;102009.34;5008113;28;19921;-78
2023/08/16 05:59:00;;;;;;;;;;;;;;;17.69;100.00;102016.06;4991730;28;19929;-77
2023/08/16 06:01:25;;;;;;;;;;;;;;;17.78;100.00;102014.38;5008819;28;19929;-78
2023/08/16 06:03:50;;;;;;;;;;;;;;;17.88;100.00;102019.84;4993459;28;19921;-77
2023/08/16 06:06:16;;;;;;;;;;;;;;;17.94;100.00;102013.00;4990723;28;19952;-78
2023/08/16 06:08:41;;;;;;;;;;;;;;;18.01;100.00;102016.88;4992913;28;20635;-78
2023/08/16 06:11:08;;;;;;;;;;;;;;;18.01;100.00;102014.16;4976474;28;19914;-78
2023/08/16 06:13:33;;;;;;;;;;;;;;;18.02;100.00;102013.16;4990663;28;19921;-78
2023/08/16 06:15:59;;;;;;;;;;;;;;;18.09;100.00;102016.22;4978881;28;19921;-78
2023/08/16 06:18:24;;;;;;;;;;;;;;;18.10;100.00;102013.34;5004410;28;19922;-76
2023/08/16 06:20:51;;;;;;;;;;;;;;;18.22;100.00;102013.22;4978427;28;21075;-78
2023/08/16 06:23:16;;;;;;;;;;;;;;;18.28;100.00;102010.78;4985724;28;20012;-78
2023/08/16 06:25:41;;;;;;;;;;;;;;;18.36;100.00;102017.38;4990036;28;19926;-78
2023/08/16 06:28:07;;;;;;;;;;;;;;;18.39;100.00;102015.22;4994123;28;20008;-78
2023/08/16 06:30:32;;;;;;;;;;;;;;;18.40;100.00;102019.66;4977891;28;19926;-78
2023/08/16 06:32:57;;;;;;;;;;;;;;;18.57;100.00;102028.97;5011569;28;19927;-79
2023/08/16 06:35:22;;;;;;;;;;;;;;;18.65;100.00;102028.25;4992737;28;19924;-80
2023/08/16 06:37:47;;;;;;;;;;;;;;;18.68;100.00;102038.84;4976210;28;19918;-79
2023/08/16 06:40:13;;;;;;;;;;;;;;;18.69;100.00;102029.69;4989178;28;19925;-79
2023/08/16 06:42:39;;;;;;;;;;;;;;;18.80;100.00;102025.94;4991191;28;19922;-79
2023/08/16 06:45:05;;;;;;;;;;;;;;;18.92;100.00;102028.53;4991029;28;19946;-78
2023/08/16 06:47:30;;;;;;;;;;;;;;;18.83;100.00;102022.06;4992773;28;19967;-78
2023/08/16 06:49:55;;;;;;;;;;;;;;;18.88;100.00;102031.53;4985893;28;19928;-78
2023/08/16 06:52:21;;;;;;;;;;;;;;;18.95;100.00;102029.13;5004703;28;19925;-78
2023/08/16 06:54:46;;;;;;;;;;;;;;;18.99;100.00;102035.97;4992108;28;19930;-80
2023/08/16 06:57:11;;;;;;;;;;;;;;;19.03;100.00;102033.81;4993592;28;19990;-79
2023/08/16 06:59:38;;;;;;;;;;;;;;;19.05;100.00;102028.25;4992036;28;19984;-79
2023/08/16 07:02:03;;;;;;;;;;;;;;;19.22;100.00;102018.44;5009160;28;19921;-78
2023/08/16 07:04:28;;;;;;;;;;;;;;;19.37;100.00;102021.53;4991118;28;19921;-78
2023/08/16 07:06:54;;;;;;;;;;;;;;;19.28;100.00;102026.88;5003832;28;19956;-78
2023/08/16 07:09:20;;;;;;;;;;;;;;;19.38;100.00;102015.97;4990655;28;19964;-79
2023/08/16 07:11:45;;;;;;;;;;;;;;;19.31;100.00;102028.44;5008036;28;20359;-81
2023/08/16 07:14:11;;;;;;;;;;;;;;;19.45;100.00;102035.28;4985742;28;20044;-80
2023/08/16 07:16:38;;;;;;;;;;;;;;;19.66;100.00;102032.31;5001405;28;19922;-80
2023/08/16 07:19:04;;;;;;;;;;;;;;;19.61;100.00;102029.19;4991073;28;19921;-78
2023/08/16 07:21:29;;;;;;;;;;;;;;;19.56;100.00;102028.78;4987268;28;20043;-79
2023/08/16 07:23:54;;;;;;;;;;;;;;;19.56;100.00;102037.81;4987085;28;20454;-79
2023/08/16 07:26:19;;;;;;;;;;;;;;;19.40;100.00;102038.47;4975425;28;20349;-79
2023/08/16 07:28:45;;;;;;;;;;;;;;;19.34;100.00;102034.44;4980263;28;19960;-80
2023/08/16 07:31:10;;;;;;;;;;;;;;;19.31;100.00;102032.03;4989158;28;19928;-80
2023/08/16 07:33:35;;;;;;;;;;;;;;;19.13;100.00;102031.06;5005762;28;19918;-79
2023/08/16 07:36:01;;;;;;;;;;;;;;;19.19;100.00;102033.22;4975298;28;19926;-77
2023/08/16 07:38:28;;;;;;;;;;;;;;;19.24;100.00;102021.88;4971029;28;20409;-78
2023/08/16 07:40:53;;;;;;;;;;;;;;;19.46;100.00;102023.38;4991147;28;20005;-80
2023/08/16 07:43:19;;;;;;;;;;;;;;;19.63;100.00;102025.28;4990573;28;19917;-78
2023/08/16 07:45:44;;;;;;;;;;;;;;;19.70;100.00;102031.03;4994854;28;19953;-78
2023/08/16 07:48:09;;;;;;;;;;;;;;;19.73;100.00;102035.31;4989525;28;20230;-76
2023/08/16 07:50:35;;;;;;;;;;;;;;;20.00;100.00;102034.44;5008173;28;20279;-78
2023/08/16 07:53:00;;;;;;;;;;;;;;;20.08;100.00;102036.44;4989681;28;19922;-78
2023/08/16 07:55:30;;;;;;;;;;;;;;;20.32;100.00;102037.69;4990765;28;20328;-78
2023/08/16 07:57:55;;;;;;;;;;;;;;;20.39;100.00;102038.81;5000542;28;19969;-78
2023/08/16 08:00:20;;;;;;;;;;;;;;;20.52;100.00;102039.25;4987158;28;20468;-79
2023/08/16 08:02:45;;;;;;;;;;;;;;;20.67;100.00;102038.69;4993008;28;20406;-80
2023/08/16 08:05:11;;;;;;;;;;;;;;;20.70;100.00;102043.00;4992863;28;20364;-80
2023/08/16 08:07:36;;;;;;;;;;;;;;;20.82;100.00;102055.41;4992760;28;19921;-78
2023/08/16 08:10:01;;;;;;;;;;;;;;;20.97;100.00;102061.13;4990533;28;19922;-79
2023/08/16 08:12:26;;;;;;;;;;;;;;;20.99;100.00;102064.56;4988904;28;20354;-77
2023/08/16 08:14:51;;;;;;;;;;;;;;;21.03;100.00;102062.41;4994622;28;19964;-81
2023/08/16 08:17:17;;;;;;;;;;;;;;;21.30;100.00;102060.53;4979831;28;20000;-81
2023/08/16 08:19:42;;;;;;;;;;;;;;;21.38;100.00;102063.31;4994160;28;20023;-78
2023/08/16 08:22:09;;;;;;;;;;;;;;;21.57;100.00;102056.75;4990175;28;19925;-82
2023/08/16 08:24:34;;;;;;;;;;;;;;;21.71;100.00;102058.03;4971629;28;19926;-80
2023/08/16 08:26:59;;;;;;;;;;;;;;;21.94;100.00;102052.84;4991170;28;19921;-79
2023/08/16 08:29:25;;;;;;;;;;;;;;;21.94;100.00;102061.06;4985159;28;20230;-79
2023/08/16 08:31:50;;;;;;;;;;;;;;;21.83;100.00;102070.41;4987564;28;20020;-78
2023/08/16 08:34:16;;;;;;;;;;;;;;;22.11;100.00;102069.31;4990918;28;19991;-81
2023/08/16 08:36:41;;;;;;;;;;;;;;;22.27;100.00;102063.88;4990273;28;19925;-78
2023/08/16 08:39:06;;;;;;;;;;;;;;;21.96;100.00;102066.34;4985260;28;19964;-80
2023/08/16 08:41:32;;;;;;;;;;;;;;;21.81;100.00;102072.44;5007484;28;20028;-82
2023/08/16 08:43:58;;;;;;;;;;;;;;;21.69;100.00;102069.16;5007671;28;20300;-76
2023/08/16 08:46:23;;;;;;;;;;;;;;;21.31;100.00;102073.19;4975762;28;19921;-81
2023/08/16 08:48:48;;;;;;;;;;;;;;;21.40;100.00;102075.78;4989902;28;19922;-81
2023/08/16 08:51:14;;;;;;;;;;;;;;;21.47;100.00;102069.66;4975504;28;19975;-81
2023/08/16 08:53:39;;;;;;;;;;;;;;;21.76;100.00;102066.63;5010231;28;19995;-78
2023/08/16 08:56:09;;;;;;;;;;;;;;;21.85;100.00;102072.97;5009351;28;20020;-79
2023/08/16 08:58:34;;;;;;;;;;;;;;;22.10;100.00;102070.31;5005799;28;19933;-79
2023/08/16 09:00:59;;;;;;;;;;;;;;;22.10;100.00;102068.47;5007069;28;20284;-80
2023/08/16 09:03:24;;;;;;;;;;;;;;;22.46;100.00;102064.63;4993230;28;19918;-79
2023/08/16 09:05:51;;;;;;;;;;;;;;;22.69;100.00;102069.44;4994350;28;19952;-79
2023/08/16 09:08:16;;;;;;;;;;;;;;;22.70;100.00;102061.03;5007632;28;19925;-79
2023/08/16 09:10:41;;;;;;;;;;;;;;;22.83;100.00;102067.91;4994229;28;19922;-80
2023/08/16 09:13:09;;;;;;;;;;;;;;;22.98;100.00;102060.69;4991457;28;20438;-77
2023/08/16 09:15:35;;;;;;;;;;;;;;;23.14;100.00;102054.34;4992064;28;19924;-83
2023/08/16 09:18:13;;;;;;;;;;;;;;;23.28;100.00;102062.94;5009874;28;19922;-80
2023/08/16 09:20:38;;;;;;;;;;;;;;;22.93;100.00;102054.88;4993722;28;19968;-78
2023/08/16 09:23:03;;;;;;;;;;;;;;;23.22;100.00;102058.97;4994422;28;19925;-79
2023/08/16 09:25:29;;;;;;;;;;;;;;;23.43;100.00;102057.59;5004761;28;20117;-82
2023/08/16 09:27:54;;;;;;;;;;;;;;;23.47;100.00;102057.06;5006110;28;19921;-83
2023/08/16 09:30:19;;;;;;;;;;;;;;;23.48;100.00;102066.97;5008412;28;19932;-82
2023/08/16 09:32:47;;;;;;;;;;;;;;;23.45;100.00;102064.59;5005089;28;19972;-79
2023/08/16 09:35:13;;;;;;;;;;;;;;;23.60;100.00;102067.47;4987354;28;19925;-80
2023/08/16 09:37:38;;;;;;;;;;;;;;;23.64;100.00;102067.94;5005683;28;20364;-84
2023/08/16 09:40:06;;;;;;;;;;;;;;;23.30;100.00;102064.47;5004493;28;20714;-74
2023/08/16 09:42:32;;;;;;;;;;;;;;;23.66;100.00;102057.66;4988112;28;20186;-80
2023/08/16 09:44:57;;;;;;;;;;;;;;;24.04;100.00;102065.25;4974302;28;19979;-78
2023/08/16 09:47:22;;;;;;;;;;;;;;;23.95;100.00;102062.53;4996016;28;20368;-78
2023/08/16 09:49:49;;;;;;;;;;;;;;;24.42;100.00;102059.88;4991777;28;19918;-75
2023/08/16 09:52:14;;;;;;;;;;;;;;;24.35;100.00;102061.63;4976091;28;19921;-80
2023/08/16 09:54:39;;;;;;;;;;;;;;;24.30;100.00;102048.47;4980125;28;20189;-76
2023/08/16 09:57:05;;;;;;;;;;;;;;;24.66;100.00;102052.50;4994394;28;19967;-78
2023/08/16 09:59:30;;;;;;;;;;;;;;;24.98;100.00;102048.63;4985765;28;20067;-79
2023/08/16 10:01:56;;;;;;;;;;;;;;;25.12;100.00;102048.84;5001385;28;19933;-78
2023/08/16 10:04:21;;;;;;;;;;;;;;;25.07;100.00;102051.28;4982454;28;20336;-80
2023/08/16 10:06:47;;;;;;;;;;;;;;;25.07;100.00;102052.13;5008583;28;19933;-76
2023/08/16 10:09:12;;;;;;;;;;;;;;;25.45;100.00;102054.00;4990813;28;20383;-77
2023/08/16 10:11:38;;;;;;;;;;;;;;;25.67;96.01;102057.69;4993204;28;20388;-79
2023/08/16 10:14:06;;;;;;;;;;;;;;;25.67;94.08;102049.44;4978776;28;19921;-80
2023/08/16 10:16:31;;;;;;;;;;;;;;;26.11;93.48;102049.53;4988170;28;19925;-78
2023/08/16 10:18:56;;;;;;;;;;;;;;;26.13;98.32;102062.13;4986032;28;20501;-81
2023/08/16 10:21:22;;;;;;;;;;;;;;;26.18;90.32;102056.03;4994150;28;20395;-78
2023/08/16 10:23:47;;;;;;;;;;;;;;;26.73;83.86;102056.38;4990658;28;19926;-78
2023/08/16 10:26:13;;;;;;;;;;;;;;;26.57;86.88;102054.75;4987669;28;20261;-78
2023/08/16 10:28:39;;;;;;;;;;;;;;;26.16;88.73;102058.09;4986396;28;19928;-79
2023/08/16 10:31:04;;;;;;;;;;;;;;;26.16;88.62;102058.09;4976436;28;19925;-80
2023/08/16 10:33:30;;;;;;;;;;;;;;;25.08;90.49;102061.25;5000933;28;19928;-79
2023/08/16 10:35:55;;;;;;;;;;;;;;;25.47;84.58;102059.31;5007070;28;19972;-76
2023/08/16 10:38:21;;;;;;;;;;;;;;;25.74;92.10;102044.03;4992007;28;20016;-80
2023/08/16 10:40:55;;;;;;;;;;;;;;;25.87;82.16;102057.97;4987420;28;19988;-78
2023/08/16 10:43:29;;;;;;;;;;;;;;;25.85;91.60;102059.19;5004251;28;19964;-80
2023/08/16 10:45:56;;;;;;;;;;;;;;;25.90;85.76;102059.47;4990288;28;19925;-75
2023/08/16 10:48:21;;;;;;;;;;;;;;;25.39;83.14;102058.34;4971209;28;19921;-77
2023/08/16 10:50:56;;;;;;;;;;;;;;;25.85;84.12;102062.81;4991039;28;19925;-82
2023/08/16 10:53:23;;;;;;;;;;;;;;;25.34;86.01;102059.94;4987172;28;19976;-79
2023/08/16 10:55:53;;;;;;;;;;;;;;;25.11;89.98;102055.38;5002387;28;20327;-79
2023/08/16 10:58:24;;;;;;;;;;;;;;;24.97;99.92;102054.31;4986492;28;19925;-79
2023/08/16 11:00:59;;;;;;;;;;;;;;;24.89;95.04;102049.75;4999416;28;20096;-78
2023/08/16 11:03:29;;;;;;;;;;;;;;;25.21;91.56;102046.88;4987280;28;20382;-81
2023/08/16 11:05:55;;;;;;;;;;;;;;;25.74;92.81;102044.91;5008080;28;20342;-77
2023/08/16 11:08:20;;;;;;;;;;;;;;;25.58;96.58;102053.31;4985178;28;20376;-78
2023/08/16 11:10:45;;;;;;;;;;;;;;;26.14;96.43;102043.69;4985934;28;19967;-77
2023/08/16 11:13:11;;;;;;;;;;;;;;;27.00;87.45;102039.22;4988922;28;20007;-77
2023/08/16 11:15:36;;;;;;;;;;;;;;;27.57;76.60;102053.81;4991364;28;19917;-81
2023/08/16 11:18:01;;;;;;;;;;;;;;;28.18;76.91;102046.66;4990964;28;20384;-80
2023/08/16 11:20:29;;;;;;;;;;;;;;;28.75;72.73;102040.81;4989578;28;20679;-79
2023/08/16 11:22:54;;;;;;;;;;;;;;;29.41;72.56;102044.56;5010243;28;19921;-81
2023/08/16 11:25:19;;;;;;;;;;;;;;;29.33;59.02;102044.81;5005544;28;20326;-80
2023/08/16 11:27:44;;;;;;;;;;;;;;;29.88;65.00;102047.19;4969597;28;20296;-78
2023/08/16 11:30:09;;;;;;;;;;;;;;;29.37;61.70;102036.94;4991623;28;20229;-81
2023/08/16 11:32:40;;;;;;;;;;;;;;;29.55;57.87;102036.25;4990834;28;20517;-75
2023/08/16 11:35:08;;;;;;;;;;;;;;;29.12;71.24;102043.13;5004417;28;20012;-76
2023/08/16 11:37:34;;;;;;;;;;;;;;;29.07;59.62;102035.50;5002512;28;19992;-80
2023/08/16 11:40:00;;;;;;;;;;;;;;;28.91;61.83;102036.78;4987704;28;19925;-75
2023/08/16 11:42:25;;;;;;;;;;;;;;;28.58;68.31;102040.34;5003487;28;20484;-78
2023/08/16 11:44:51;;;;;;;;;;;;;;;27.97;67.90;102037.44;4984668;28;20172;-82
2023/08/16 11:47:16;;;;;;;;;;;;;;;27.75;64.66;102033.13;4986559;28;20261;-79
2023/08/16 11:49:41;;;;;;;;;;;;;;;27.28;66.32;102025.41;4987852;28;20347;-80
2023/08/16 11:52:06;;;;;;;;;;;;;;;27.22;70.53;102018.81;5004903;28;20016;-78
2023/08/16 11:54:32;;;;;;;;;;;;;;;27.72;73.45;102028.03;4989859;28;22363;-81
2023/08/16 11:56:58;;;;;;;;;;;;;;;27.19;72.12;102021.13;4993916;28;20751;-79
2023/08/16 11:59:32;;;;;;;;;;;;;;;27.91;69.91;102023.63;4989643;28;20261;-80
2023/08/16 12:02:04;;;;;;;;;;;;;;;28.79;61.58;102021.91;4988832;28;20296;-80
2023/08/16 12:04:30;;;;;;;;;;;;;;;28.89;58.73;102019.56;4972743;28;19921;-73
2023/08/16 12:06:55;;;;;;;;;;;;;;;28.65;58.78;102019.13;5005740;28;20011;-80
2023/08/16 12:09:20;;;;;;;;;;;;;;;29.05;68.61;102012.75;4989456;28;20007;-81
2023/08/16 12:11:49;;;;;;;;;;;;;;;28.60;64.30;101991.28;4986330;28;20001;-80
2023/08/16 12:14:14;;;;;;;;;;;;;;;29.76;60.68;102008.28;4992681;28;19921;-77
2023/08/16 12:16:39;;;;;;;;;;;;;;;29.84;56.53;102006.34;5013621;28;19963;-79
2023/08/16 12:19:05;;;;;;;;;;;;;;;29.54;55.74;102010.50;5002311;28;19930;-80
2023/08/16 12:21:30;;;;;;;;;;;;;;;29.33;53.05;102009.69;5008883;28;19925;-79